Time;durP1;ratioP1;P1;durP2;ratioP2;P2;SDS_P1;SDS_P2;PMS_P1;PMS_P2;Temp;Humidity;BMP_temperature;BMP_pressure;BME280_temperature;BME280_humidity;BME280_pressure;Samples;Min_cycle;Max_cycle;Signal;HPM_P1;HPM_P2
2023/06/18 00:01:51;;;;;;;1.70;1.08;;;19.10;99.90;;;;;;5035740;28;20636;-77
2023/06/18 00:04:16;;;;;;;1.50;0.95;;;19.10;99.90;;;;;;5061787;28;20233;-76
2023/06/18 00:06:42;;;;;;;0.82;0.75;;;19.20;99.90;;;;;;5072936;28;20209;-77
2023/06/18 00:09:08;;;;;;;1.23;0.80;;;19.20;99.90;;;;;;5055032;28;20200;-75
2023/06/18 00:11:33;;;;;;;1.02;0.70;;;19.30;99.90;;;;;;5054815;28;20715;-80
2023/06/18 00:13:59;;;;;;;0.80;0.80;;;19.30;99.90;;;;;;5072465;28;20279;-79
2023/06/18 00:16:25;;;;;;;1.58;0.93;;;19.20;99.90;;;;;;5072428;28;20201;-77
2023/06/18 00:18:51;;;;;;;0.98;0.70;;;19.10;99.90;;;;;;5072956;28;20219;-77
2023/06/18 00:21:16;;;;;;;0.57;0.57;;;19.20;99.90;;;;;;5054318;28;20208;-77
2023/06/18 00:23:42;;;;;;;0.70;0.68;;;19.20;99.90;;;;;;5053388;28;20556;-77
2023/06/18 00:26:08;;;;;;;1.08;1.00;;;19.20;99.90;;;;;;5072755;28;20193;-78
2023/06/18 00:28:33;;;;;;;1.98;0.95;;;19.20;99.90;;;;;;5072384;28;20209;-77
2023/06/18 00:30:59;;;;;;;0.40;0.40;;;19.20;99.90;;;;;;5072206;28;20192;-77
2023/06/18 00:33:25;;;;;;;1.15;0.93;;;19.20;99.90;;;;;;5072033;28;20189;-78
2023/06/18 00:35:56;;;;;;;1.83;1.08;;;19.20;99.90;;;;;;5072924;28;20280;-78
2023/06/18 00:38:33;;;;;;;1.48;0.82;;;19.10;99.90;;;;;;5072256;28;20188;-78
2023/06/18 00:40:58;;;;;;;1.27;1.05;;;19.10;99.90;;;;;;5072692;28;20200;-78
2023/06/18 00:43:27;;;;;;;0.30;0.30;;;19.10;99.90;;;;;;5054473;28;20204;-78
2023/06/18 00:45:54;;;;;;;0.70;0.70;;;19.10;99.90;;;;;;5054277;28;20209;-79
2023/06/18 00:48:20;;;;;;;0.93;0.88;;;19.00;99.90;;;;;;5071243;28;20235;-79
2023/06/18 00:50:46;;;;;;;0.80;0.80;;;19.00;99.90;;;;;;5072328;28;20220;-79
2023/06/18 00:53:13;;;;;;;1.13;0.88;;;19.00;99.90;;;;;;5053940;28;20189;-79
2023/06/18 00:55:41;;;;;;;2.63;0.98;;;19.10;99.90;;;;;;5054073;28;20226;-79
2023/06/18 00:58:07;;;;;;;0.55;0.52;;;19.10;99.90;;;;;;5054238;28;20552;-80
2023/06/18 01:00:34;;;;;;;1.80;1.17;;;19.10;99.90;;;;;;5071797;28;20189;-74
2023/06/18 01:05:31;;;;;;;0.68;0.68;;;19.10;99.90;;;;;;5029740;28;20248;-69
2023/06/18 01:08:06;;;;;;;0.38;0.38;;;19.10;99.90;;;;;;5031150;28;20264;-69
2023/06/18 01:10:33;;;;;;;1.02;0.98;;;19.10;99.90;;;;;;5031255;28;20679;-69
2023/06/18 01:13:00;;;;;;;0.50;0.50;;;19.00;99.90;;;;;;5029884;28;20218;-68
2023/06/18 01:15:26;;;;;;;1.48;0.88;;;19.00;99.90;;;;;;5033235;28;20197;-68
2023/06/18 01:17:56;;;;;;;3.45;1.23;;;19.00;99.90;;;;;;5051283;28;20208;-68
2023/06/18 01:20:25;;;;;;;1.17;1.08;;;18.90;99.90;;;;;;5050599;28;20223;-68
2023/06/18 01:22:57;;;;;;;0.73;0.73;;;18.90;99.90;;;;;;5051148;28;20197;-68
2023/06/18 01:25:27;;;;;;;0.90;0.70;;;19.00;99.90;;;;;;5050593;28;20190;-68
2023/06/18 01:27:54;;;;;;;0.60;0.60;;;19.00;99.90;;;;;;5050656;28;20715;-69
2023/06/18 01:30:20;;;;;;;1.23;1.02;;;19.00;99.90;;;;;;5050688;28;20469;-70
2023/06/18 01:32:47;;;;;;;1.20;1.10;;;18.90;99.90;;;;;;5050733;28;20201;-67
2023/06/18 01:35:15;;;;;;;0.88;0.73;;;18.80;99.90;;;;;;5050579;28;20633;-68
2023/06/18 01:38:19;;;;;;;0.70;0.60;;;18.80;99.90;;;;;;5038203;28;20267;-68
2023/06/18 01:40:52;;;;;;;1.35;1.25;;;18.70;99.90;;;;;;5052811;28;20567;-68
2023/06/18 01:43:30;;;;;;;1.67;0.57;;;18.70;99.90;;;;;;5070362;28;20198;-68
2023/06/18 01:45:59;;;;;;;2.10;0.90;;;18.70;99.90;;;;;;5070600;28;20623;-69
2023/06/18 01:48:28;;;;;;;1.30;0.75;;;18.70;99.90;;;;;;5070356;28;20204;-68
2023/06/18 01:50:55;;;;;;;0.88;0.77;;;18.70;99.90;;;;;;5070490;28;20308;-68
2023/06/18 01:53:21;;;;;;;0.98;0.95;;;18.80;99.90;;;;;;5058060;28;20197;-69
2023/06/18 01:55:50;;;;;;;1.05;0.95;;;18.70;99.90;;;;;;5050441;28;20636;-69
2023/06/18 01:58:16;;;;;;;2.03;1.38;;;18.50;99.90;;;;;;5032354;28;20201;-68
2023/06/18 02:00:42;;;;;;;0.35;0.35;;;18.50;99.90;;;;;;5044117;28;20210;-70
2023/06/18 02:03:08;;;;;;;1.45;1.35;;;18.50;99.90;;;;;;5048552;28;20225;-68
2023/06/18 02:05:35;;;;;;;0.95;0.77;;;18.50;99.90;;;;;;5050170;28;20225;-68
2023/06/18 02:08:01;;;;;;;1.35;1.00;;;18.50;99.90;;;;;;5032272;28;20271;-68
2023/06/18 02:10:26;;;;;;;0.60;0.60;;;18.50;99.90;;;;;;5032524;28;20193;-68
2023/06/18 02:12:52;;;;;;;0.77;0.77;;;18.40;99.90;;;;;;5050030;28;20197;-68
2023/06/18 02:15:20;;;;;;;1.00;0.73;;;18.20;99.90;;;;;;5032228;28;20193;-69
2023/06/18 02:17:46;;;;;;;1.65;1.10;;;18.10;99.90;;;;;;5050397;28;20190;-69
2023/06/18 02:20:12;;;;;;;0.50;0.50;;;18.10;99.90;;;;;;5050176;28;20204;-68
2023/06/18 02:22:38;;;;;;;0.82;0.55;;;18.20;99.90;;;;;;5050279;28;21781;-68
2023/06/18 02:25:08;;;;;;;0.77;0.77;;;18.40;99.90;;;;;;5048717;28;20224;-68
2023/06/18 02:27:33;;;;;;;0.82;0.82;;;18.50;99.90;;;;;;5049906;28;20209;-68
2023/06/18 02:30:01;;;;;;;1.80;1.40;;;18.60;99.90;;;;;;5050021;28;20834;-68
2023/06/18 02:32:28;;;;;;;0.95;0.77;;;18.70;99.90;;;;;;5049849;28;20212;-70
2023/06/18 02:34:55;;;;;;;0.55;0.55;;;18.70;99.90;;;;;;5063902;28;20193;-69
2023/06/18 02:37:21;;;;;;;0.40;0.40;;;18.80;99.90;;;;;;5069786;28;20191;-69
2023/06/18 02:39:46;;;;;;;0.70;0.70;;;18.80;99.90;;;;;;5070154;28;20638;-68
2023/06/18 02:42:12;;;;;;;0.90;0.73;;;18.90;99.90;;;;;;5070139;28;20201;-68
2023/06/18 02:44:41;;;;;;;1.38;1.17;;;19.00;99.90;;;;;;5069626;28;20200;-67
2023/06/18 02:47:08;;;;;;;1.73;1.27;;;18.90;99.90;;;;;;5073585;28;20212;-68
2023/06/18 02:49:34;;;;;;;1.75;1.10;;;18.90;99.90;;;;;;5055627;28;20284;-68
2023/06/18 02:52:00;;;;;;;1.38;0.95;;;18.70;99.90;;;;;;5054552;28;20269;-68
2023/06/18 02:54:26;;;;;;;0.65;0.63;;;18.60;99.90;;;;;;5053653;28;20182;-68
2023/06/18 02:56:51;;;;;;;2.25;1.23;;;18.60;99.90;;;;;;5053908;28;20697;-68
2023/06/18 02:59:17;;;;;;;0.50;0.50;;;18.60;99.90;;;;;;5053576;28;20280;-69
2023/06/18 03:01:45;;;;;;;0.98;0.93;;;18.50;99.90;;;;;;5053000;28;20259;-69
2023/06/18 03:04:11;;;;;;;1.58;1.25;;;18.30;99.90;;;;;;5053197;28;20291;-69
2023/06/18 03:06:37;;;;;;;1.80;1.00;;;18.30;99.90;;;;;;5035234;28;20205;-69
2023/06/18 03:09:03;;;;;;;0.68;0.68;;;18.40;99.90;;;;;;5053245;28;20197;-69
2023/06/18 03:11:30;;;;;;;1.20;0.70;;;18.50;99.90;;;;;;5053382;28;20192;-68
2023/06/18 03:13:56;;;;;;;0.60;0.60;;;18.50;99.90;;;;;;5035411;28;20271;-68
2023/06/18 03:16:23;;;;;;;1.90;0.90;;;18.50;99.90;;;;;;5053289;28;20194;-68
2023/06/18 03:18:50;;;;;;;0.73;0.73;;;18.60;99.90;;;;;;5053500;28;20192;-68
2023/06/18 03:21:16;;;;;;;1.48;0.90;;;18.70;99.90;;;;;;5035273;28;20659;-68
2023/06/18 03:23:43;;;;;;;2.78;1.58;;;18.60;99.90;;;;;;5051846;28;20292;-68
2023/06/18 03:26:09;;;;;;;1.58;1.10;;;18.70;99.90;;;;;;5035286;28;20190;-68
2023/06/18 03:28:36;;;;;;;1.27;0.85;;;18.70;99.90;;;;;;5035023;28;20240;-68
2023/06/18 03:31:02;;;;;;;1.65;1.15;;;18.60;99.90;;;;;;5065864;28;20280;-69
2023/06/18 03:33:31;;;;;;;1.20;0.93;;;18.60;99.90;;;;;;5054945;28;20197;-69
2023/06/18 03:36:00;;;;;;;1.17;0.80;;;18.70;99.90;;;;;;5073085;28;20562;-69
2023/06/18 03:38:29;;;;;;;0.85;0.85;;;18.80;99.90;;;;;;5072899;28;20199;-68
2023/06/18 03:40:54;;;;;;;1.40;1.08;;;18.80;99.90;;;;;;5054979;28;20192;-67
2023/06/18 03:43:20;;;;;;;3.63;1.48;;;18.80;99.90;;;;;;5072676;28;20211;-70
2023/06/18 03:45:46;;;;;;;1.10;0.88;;;18.70;99.90;;;;;;5072879;28;20268;-67
2023/06/18 03:48:12;;;;;;;1.98;1.75;;;18.50;99.90;;;;;;5072770;28;20236;-68
2023/06/18 03:50:37;;;;;;;0.80;0.80;;;18.50;99.90;;;;;;5072672;28;20657;-68
2023/06/18 03:53:03;;;;;;;3.05;1.25;;;18.50;99.90;;;;;;5062965;28;20239;-68
2023/06/18 03:55:29;;;;;;;0.52;0.52;;;18.50;99.90;;;;;;5052546;28;20197;-67
2023/06/18 03:57:55;;;;;;;1.20;0.77;;;18.50;99.90;;;;;;5052452;28;20273;-69
2023/06/18 04:00:21;;;;;;;0.70;0.70;;;18.50;99.90;;;;;;5052255;28;20186;-68
2023/06/18 04:02:47;;;;;;;1.13;1.00;;;18.40;99.90;;;;;;5034586;28;20268;-67
2023/06/18 04:05:12;;;;;;;1.17;0.80;;;18.30;99.90;;;;;;5034307;28;20316;-69
2023/06/18 04:07:38;;;;;;;0.30;0.30;;;18.30;99.90;;;;;;5052087;28;20292;-67
2023/06/18 04:10:05;;;;;;;0.68;0.60;;;18.20;99.90;;;;;;5052381;28;20190;-67
2023/06/18 04:12:30;;;;;;;0.70;0.70;;;18.20;99.90;;;;;;5051098;28;20198;-67
2023/06/18 04:14:56;;;;;;;0.40;0.40;;;18.20;99.90;;;;;;5052210;28;20247;-67
2023/06/18 04:17:24;;;;;;;1.80;1.33;;;18.30;99.90;;;;;;5052117;28;20736;-69
2023/06/18 04:19:50;;;;;;;0.80;0.80;;;18.20;99.90;;;;;;5052303;28;20303;-69
2023/06/18 04:22:16;;;;;;;1.23;1.15;;;18.30;99.90;;;;;;5052131;28;20236;-69
2023/06/18 04:24:41;;;;;;;1.27;1.13;;;18.30;99.90;;;;;;5051891;28;20197;-68
2023/06/18 04:27:07;;;;;;;2.25;1.48;;;18.30;99.90;;;;;;5063229;28;20193;-67
2023/06/18 04:29:33;;;;;;;1.48;1.00;;;18.30;99.90;;;;;;5071872;28;20188;-70
2023/06/18 04:31:58;;;;;;;0.68;0.68;;;18.40;99.90;;;;;;5071854;28;20660;-69
2023/06/18 04:34:24;;;;;;;5.45;1.20;;;18.40;99.90;;;;;;5071664;28;20259;-68
2023/06/18 04:36:50;;;;;;;1.30;0.63;;;18.50;99.90;;;;;;5072036;28;20220;-69
2023/06/18 04:39:16;;;;;;;0.55;0.55;;;18.50;99.90;;;;;;5071700;28;20272;-68
2023/06/18 04:41:41;;;;;;;1.02;0.98;;;18.50;99.90;;;;;;5071657;28;20678;-68
2023/06/18 04:44:08;;;;;;;2.28;1.65;;;18.70;99.90;;;;;;5071580;28;20205;-68
2023/06/18 04:46:34;;;;;;;4.70;1.50;;;18.90;99.90;;;;;;5053377;28;20624;-68
2023/06/18 04:48:59;;;;;;;1.52;0.93;;;19.00;99.90;;;;;;5053859;28;20189;-68
2023/06/18 04:51:25;;;;;;;1.50;1.23;;;19.00;99.90;;;;;;5071435;28;20193;-69
2023/06/18 04:53:52;;;;;;;1.05;0.95;;;18.90;99.90;;;;;;5037056;28;20238;-69
2023/06/18 04:56:19;;;;;;;0.68;0.68;;;19.00;99.90;;;;;;5051454;28;20234;-69
2023/06/18 04:58:44;;;;;;;1.77;1.10;;;19.00;99.90;;;;;;5051535;28;20247;-68
2023/06/18 05:01:10;;;;;;;0.95;0.70;;;18.90;99.90;;;;;;5047715;28;20209;-69
2023/06/18 05:03:36;;;;;;;1.08;1.00;;;18.90;99.90;;;;;;5050733;28;20237;-68
2023/06/18 05:06:03;;;;;;;1.48;1.05;;;18.70;99.90;;;;;;5051165;28;20339;-68
2023/06/18 05:08:28;;;;;;;0.65;0.65;;;18.80;99.90;;;;;;5050373;28;20201;-69
2023/06/18 05:10:54;;;;;;;18.70;0.63;;;18.90;99.90;;;;;;5051138;28;20650;-67
2023/06/18 05:13:20;;;;;;;1.33;1.23;;;18.90;99.90;;;;;;5050964;28;20194;-68
2023/06/18 05:15:46;;;;;;;1.40;1.10;;;19.00;99.90;;;;;;5051169;28;20186;-69
2023/06/18 05:18:12;;;;;;;1.30;1.20;;;18.90;99.90;;;;;;5051103;28;20206;-67
2023/06/18 05:20:37;;;;;;;0.75;0.75;;;18.70;99.90;;;;;;5050862;28;20212;-68
2023/06/18 05:23:03;;;;;;;1.83;1.10;;;18.80;99.90;;;;;;5059541;28;20196;-68
2023/06/18 05:25:29;;;;;;;0.57;0.57;;;18.90;99.90;;;;;;5052561;28;20211;-69
2023/06/18 05:27:54;;;;;;;3.97;1.30;;;18.80;99.90;;;;;;5052835;28;20209;-69
2023/06/18 05:30:21;;;;;;;1.77;1.33;;;18.70;99.90;;;;;;5070620;28;20220;-68
2023/06/18 05:32:46;;;;;;;2.60;1.50;;;18.60;99.90;;;;;;5070744;28;20663;-67
2023/06/18 05:35:12;;;;;;;0.50;0.50;;;18.70;99.90;;;;;;5052779;28;20196;-67
2023/06/18 05:37:38;;;;;;;2.42;1.08;;;18.80;99.90;;;;;;5070674;28;20659;-69
2023/06/18 05:40:04;;;;;;;2.58;0.43;;;18.80;99.90;;;;;;5070682;28;20223;-69
2023/06/18 05:42:30;;;;;;;1.95;1.20;;;18.70;99.90;;;;;;5070499;28;20184;-69
2023/06/18 05:44:56;;;;;;;0.95;0.85;;;18.60;99.90;;;;;;5070698;28;20613;-69
2023/06/18 05:47:22;;;;;;;2.15;1.13;;;18.60;99.90;;;;;;5070379;28;20628;-69
2023/06/18 05:49:47;;;;;;;1.05;0.93;;;18.60;99.90;;;;;;5052410;28;20224;-69
2023/06/18 05:52:13;;;;;;;1.27;1.17;;;18.50;99.90;;;;;;5067684;28;20690;-69
2023/06/18 05:54:39;;;;;;;1.85;1.20;;;18.50;99.90;;;;;;5050375;28;20300;-69
2023/06/18 05:57:05;;;;;;;2.13;1.52;;;18.40;99.90;;;;;;5032341;28;20240;-69
2023/06/18 05:59:31;;;;;;;2.47;1.38;;;18.50;99.90;;;;;;5050198;28;20205;-69
2023/06/18 06:01:57;;;;;;;1.67;1.33;;;18.50;99.90;;;;;;5050230;28;20197;-69
2023/06/18 06:04:23;;;;;;;1.35;1.13;;;18.60;99.90;;;;;;5049814;28;20233;-69
2023/06/18 06:06:49;;;;;;;0.90;0.90;;;18.80;99.90;;;;;;5050417;28;20212;-70
2023/06/18 06:09:14;;;;;;;1.40;0.73;;;19.00;99.90;;;;;;5050340;28;20193;-69
2023/06/18 06:11:40;;;;;;;5.95;1.73;;;19.10;99.90;;;;;;5050098;28;20556;-69
2023/06/18 06:14:06;;;;;;;1.10;1.10;;;19.20;99.90;;;;;;5050286;28;20186;-68
2023/06/18 06:16:32;;;;;;;3.60;1.48;;;19.20;99.90;;;;;;5049955;28;20197;-69
2023/06/18 06:18:57;;;;;;;1.27;0.85;;;19.10;99.90;;;;;;5050301;28;20269;-69
2023/06/18 06:21:23;;;;;;;1.35;1.05;;;19.00;99.90;;;;;;5054060;28;20201;-68
2023/06/18 06:23:49;;;;;;;1.65;0.90;;;19.00;99.90;;;;;;5054336;28;20189;-68
2023/06/18 06:26:14;;;;;;;0.90;0.80;;;19.00;99.90;;;;;;5054332;28;20193;-68
2023/06/18 06:28:40;;;;;;;0.52;0.47;;;18.90;99.90;;;;;;5053945;28;20205;-68
2023/06/18 06:31:06;;;;;;;3.38;1.50;;;18.90;99.90;;;;;;5054284;28;20239;-69
2023/06/18 06:33:32;;;;;;;1.25;1.15;;;19.00;99.90;;;;;;5053923;28;20189;-69
2023/06/18 06:35:58;;;;;;;1.15;1.05;;;19.00;99.90;;;;;;5054257;28;20680;-69
2023/06/18 06:38:23;;;;;;;0.65;0.65;;;19.00;99.90;;;;;;5053773;28;20200;-68
2023/06/18 06:40:49;;;;;;;0.68;0.68;;;19.00;99.90;;;;;;5054308;28;20198;-68
2023/06/18 06:43:15;;;;;;;0.95;0.85;;;19.00;99.90;;;;;;5053924;28;20609;-68
2023/06/18 06:45:41;;;;;;;1.15;0.90;;;19.10;99.90;;;;;;5053899;28;20194;-69
2023/06/18 06:48:07;;;;;;;1.00;0.90;;;19.00;99.90;;;;;;5053835;28;20216;-68
2023/06/18 06:50:32;;;;;;;0.45;0.45;;;18.90;99.90;;;;;;5053662;28;20729;-70
2023/06/18 06:52:58;;;;;;;2.88;1.15;;;18.90;99.90;;;;;;5053617;28;20201;-68
2023/06/18 06:55:25;;;;;;;0.85;0.80;;;19.00;99.90;;;;;;5053661;28;20225;-69
2023/06/18 06:57:51;;;;;;;0.57;0.57;;;19.10;99.90;;;;;;5053879;28;20202;-69
2023/06/18 07:00:17;;;;;;;0.82;0.82;;;19.10;99.90;;;;;;5053524;28;20204;-68
2023/06/18 07:02:43;;;;;;;0.60;0.60;;;18.90;99.90;;;;;;5053582;28;20556;-69
2023/06/18 07:05:09;;;;;;;0.90;0.88;;;18.90;99.90;;;;;;5053321;28;20225;-69
2023/06/18 07:07:35;;;;;;;0.50;0.50;;;19.10;99.90;;;;;;5053246;28;20222;-68
2023/06/18 07:10:02;;;;;;;0.52;0.52;;;19.30;99.90;;;;;;5035584;28;20687;-68
2023/06/18 07:12:28;;;;;;;2.38;0.93;;;19.50;99.90;;;;;;5053209;28;20193;-69
2023/06/18 07:14:54;;;;;;;2.17;1.83;;;19.50;99.90;;;;;;5056366;28;20196;-68
2023/06/18 07:17:19;;;;;;;1.00;0.93;;;19.50;99.90;;;;;;5064871;28;20217;-68
2023/06/18 07:19:45;;;;;;;0.70;0.63;;;19.30;99.90;;;;;;5073529;28;20192;-68
2023/06/18 07:22:11;;;;;;;1.63;0.90;;;19.30;99.90;;;;;;5073112;28;20270;-69
2023/06/18 07:24:37;;;;;;;0.95;0.93;;;19.20;99.90;;;;;;5072747;28;20287;-68
2023/06/18 07:27:03;;;;;;;2.08;1.40;;;18.90;99.90;;;;;;5073180;28;20311;-68
2023/06/18 07:29:29;;;;;;;1.05;0.95;;;18.60;99.90;;;;;;5072994;28;20189;-68
2023/06/18 07:31:55;;;;;;;0.38;0.38;;;18.40;99.90;;;;;;5072462;28;20554;-68
2023/06/18 07:34:20;;;;;;;0.70;0.70;;;18.60;99.90;;;;;;5072743;28;20196;-68
2023/06/18 07:36:46;;;;;;;7.38;1.83;;;18.90;99.90;;;;;;5073129;28;20192;-68
2023/06/18 07:39:12;;;;;;;2.72;1.90;;;19.10;99.90;;;;;;5072881;28;20189;-67
2023/06/18 07:41:38;;;;;;;1.73;1.10;;;19.30;99.90;;;;;;5072932;28;20250;-68
2023/06/18 07:44:04;;;;;;;1.40;1.25;;;19.30;99.90;;;;;;5072754;28;20196;-68
2023/06/18 07:46:30;;;;;;;1.30;0.98;;;19.40;99.90;;;;;;5072485;28;20651;-67
2023/06/18 07:48:59;;;;;;;1.27;1.10;;;19.20;99.90;;;;;;5066981;28;20695;-67
2023/06/18 07:51:27;;;;;;;0.88;0.80;;;19.00;99.90;;;;;;5052378;28;20204;-67
2023/06/18 07:53:53;;;;;;;0.80;0.80;;;18.80;99.90;;;;;;5052266;28;20715;-68
2023/06/18 07:56:19;;;;;;;0.80;0.80;;;18.80;99.90;;;;;;5052541;28;20284;-69
2023/06/18 07:58:45;;;;;;;0.85;0.60;;;18.80;99.90;;;;;;5052673;28;20296;-68
2023/06/18 08:01:10;;;;;;;0.98;0.98;;;18.70;99.90;;;;;;5052386;28;20692;-67
2023/06/18 08:03:36;;;;;;;1.58;1.05;;;18.60;99.90;;;;;;5051967;28;20237;-68
2023/06/18 08:06:02;;;;;;;1.60;1.38;;;18.70;99.90;;;;;;5052440;28;20200;-67
2023/06/18 08:08:28;;;;;;;2.58;1.52;;;18.60;99.90;;;;;;5052095;28;20275;-68
2023/06/18 08:10:53;;;;;;;1.15;0.77;;;18.70;99.90;;;;;;5053405;28;20212;-68
2023/06/18 08:13:19;;;;;;;1.00;0.93;;;18.70;99.90;;;;;;5072186;28;20903;-69
2023/06/18 08:15:45;;;;;;;0.88;0.88;;;18.70;99.90;;;;;;5072291;28;20263;-67
2023/06/18 08:18:10;;;;;;;2.55;1.70;;;18.60;99.90;;;;;;5072192;28;20228;-67
2023/06/18 08:20:36;;;;;;;3.22;1.58;;;18.50;99.90;;;;;;5071954;28;20196;-67
2023/06/18 08:23:02;;;;;;;0.80;0.75;;;18.50;99.90;;;;;;5072185;28;20287;-68
2023/06/18 08:25:28;;;;;;;0.55;0.55;;;18.70;99.90;;;;;;5071754;28;20200;-68
2023/06/18 08:27:54;;;;;;;0.93;0.73;;;18.70;99.90;;;;;;5072078;28;20784;-67
2023/06/18 08:30:20;;;;;;;2.67;1.48;;;18.80;99.90;;;;;;5071733;28;20193;-68
2023/06/18 08:32:46;;;;;;;0.57;0.57;;;18.70;99.90;;;;;;5072044;28;20189;-67
2023/06/18 08:35:12;;;;;;;0.93;0.93;;;18.30;99.90;;;;;;5071979;28;20185;-67
2023/06/18 08:37:37;;;;;;;0.68;0.68;;;18.20;99.90;;;;;;5071769;28;20196;-67
2023/06/18 08:40:04;;;;;;;8.57;1.48;;;18.00;99.90;;;;;;5053633;28;20189;-67
2023/06/18 08:42:30;;;;;;;1.60;1.05;;;17.90;99.90;;;;;;5071159;28;20216;-67
2023/06/18 08:44:56;;;;;;;1.13;0.95;;;17.90;99.90;;;;;;5067609;28;20194;-66
2023/06/18 08:47:22;;;;;;;1.73;1.30;;;17.60;99.90;;;;;;5051223;28;20208;-66
2023/06/18 08:49:50;;;;;;;0.43;0.43;;;17.60;99.90;;;;;;5051651;28;20197;-67
2023/06/18 08:52:19;;;;;;;0.82;0.82;;;17.50;99.90;;;;;;5051371;28;20239;-66
2023/06/18 08:54:49;;;;;;;2.22;1.23;;;17.50;99.90;;;;;;5051476;28;20186;-67
2023/06/18 08:57:18;;;;;;;0.70;0.70;;;17.50;99.90;;;;;;5051570;28;20194;-67
2023/06/18 08:59:44;;;;;;;1.10;1.00;;;17.60;99.90;;;;;;5033548;28;20648;-67
2023/06/18 09:02:12;;;;;;;1.65;1.42;;;17.60;99.90;;;;;;5051180;28;20250;-66
2023/06/18 09:04:39;;;;;;;0.68;0.68;;;17.60;99.90;;;;;;5051051;28;20268;-67
2023/06/18 09:07:07;;;;;;;2.70;1.08;;;17.60;99.90;;;;;;5051068;28;20266;-66
2023/06/18 09:09:33;;;;;;;1.38;1.00;;;17.70;99.90;;;;;;5051021;28;20189;-66
2023/06/18 09:11:59;;;;;;;1.60;1.48;;;17.60;99.90;;;;;;5033333;28;20537;-67
2023/06/18 09:14:25;;;;;;;1.02;0.80;;;17.50;99.90;;;;;;5050806;28;20525;-67
2023/06/18 09:16:53;;;;;;;1.20;1.08;;;17.50;99.90;;;;;;5051178;28;20196;-67
2023/06/18 09:19:20;;;;;;;1.15;1.05;;;17.50;99.90;;;;;;5051218;28;20656;-67
2023/06/18 09:21:46;;;;;;;5.50;1.15;;;17.70;99.90;;;;;;5051062;28;20194;-67
2023/06/18 09:24:16;;;;;;;2.22;1.27;;;17.80;99.90;;;;;;5050899;28;20606;-67
2023/06/18 09:26:42;;;;;;;2.17;1.52;;;18.00;99.90;;;;;;5050840;28;20193;-67
2023/06/18 09:29:09;;;;;;;1.20;0.90;;;18.30;99.90;;;;;;5033257;28;20588;-67
2023/06/18 09:31:44;;;;;;;2.22;1.40;;;18.70;99.90;;;;;;5050666;28;20185;-68
2023/06/18 09:34:13;;;;;;;1.15;1.05;;;18.80;99.90;;;;;;5050921;28;20196;-68
2023/06/18 09:36:41;;;;;;;1.38;1.27;;;18.70;99.90;;;;;;5050668;28;20247;-68
2023/06/18 09:39:21;;;;;;;1.48;1.17;;;18.60;99.90;;;;;;5032909;28;20539;-67
2023/06/18 09:41:49;;;;;;;1.60;1.05;;;18.70;99.90;;;;;;5042166;28;20658;-67
2023/06/18 09:44:16;;;;;;;2.10;1.35;;;18.70;99.90;;;;;;5030416;28;20661;-67
2023/06/18 09:46:47;;;;;;;0.95;0.88;;;18.60;99.90;;;;;;5030612;28;20191;-68
2023/06/18 09:49:15;;;;;;;3.92;1.05;;;18.40;99.90;;;;;;5031015;28;20201;-68
2023/06/18 09:51:41;;;;;;;0.60;0.60;;;18.50;99.90;;;;;;5030463;28;20191;-70
2023/06/18 09:54:08;;;;;;;1.45;1.23;;;18.50;99.90;;;;;;5047107;28;20204;-67
2023/06/18 09:56:35;;;;;;;1.17;1.08;;;18.40;99.90;;;;;;5050308;28;20220;-67
2023/06/18 09:59:03;;;;;;;1.45;1.30;;;18.40;99.90;;;;;;5050400;28;20317;-69
2023/06/18 10:01:45;;;;;;;1.27;0.70;;;18.50;99.90;;;;;;5050408;28;20189;-66
2023/06/18 10:04:12;;;;;;;0.85;0.77;;;18.40;99.90;;;;;;5042298;28;20229;-68
2023/06/18 10:06:40;;;;;;;1.52;1.42;;;18.40;99.90;;;;;;5030440;28;20634;-68
2023/06/18 10:09:08;;;;;;;2.28;1.00;;;18.40;99.90;;;;;;5030531;28;20182;-68
2023/06/18 10:11:35;;;;;;;0.77;0.60;;;18.40;99.90;;;;;;5030411;28;20193;-66
2023/06/18 10:14:06;;;;;;;2.83;1.05;;;18.50;99.90;;;;;;5030695;28;20221;-68
2023/06/18 10:16:34;;;;;;;0.90;0.85;;;18.50;99.90;;;;;;5030145;28;20217;-68
2023/06/18 10:19:09;;;;;;;0.90;0.85;;;18.60;99.90;;;;;;5030590;28;20657;-68
2023/06/18 10:21:38;;;;;;;1.98;1.67;;;18.70;99.90;;;;;;5030414;28;20273;-69
2023/06/18 10:24:17;;;;;;;1.25;1.13;;;18.70;99.90;;;;;;5030272;28;20202;-68
2023/06/18 10:26:43;;;;;;;2.05;1.13;;;18.70;99.90;;;;;;5030135;28;20194;-68
2023/06/18 10:29:12;;;;;;;0.90;0.73;;;18.70;99.90;;;;;;5030500;28;20229;-68
2023/06/18 10:31:39;;;;;;;2.72;1.02;;;18.70;99.90;;;;;;5030090;28;20197;-68
2023/06/18 10:34:05;;;;;;;0.88;0.88;;;18.80;99.90;;;;;;5030343;28;20252;-68
2023/06/18 10:36:31;;;;;;;0.75;0.75;;;18.60;99.90;;;;;;5030046;28;20248;-68
2023/06/18 10:38:58;;;;;;;1.65;1.20;;;18.40;99.90;;;;;;5029866;28;20206;-68
2023/06/18 10:41:24;;;;;;;0.50;0.50;;;18.30;99.90;;;;;;5030015;28;20194;-68
2023/06/18 10:43:55;;;;;;;0.68;0.60;;;18.20;99.90;;;;;;5030357;28;20202;-68
2023/06/18 10:46:22;;;;;;;0.98;0.98;;;18.20;99.90;;;;;;5029819;28;20280;-68
2023/06/18 10:49:15;;;;;;;2.45;1.23;;;18.20;99.90;;;;;;5029002;28;20241;-66
2023/06/18 10:51:56;;;;;;;1.13;1.02;;;18.40;99.90;;;;;;5030228;28;20598;-68
2023/06/18 10:54:26;;;;;;;1.60;1.20;;;18.50;99.90;;;;;;5028762;28;20191;-65
2023/06/18 10:56:57;;;;;;;3.70;1.45;;;18.60;99.90;;;;;;5030175;28;20198;-68
2023/06/18 10:59:46;;;;;;;1.92;0.90;;;18.60;99.90;;;;;;5029903;28;20236;-66
2023/06/18 11:02:13;;;;;;;1.17;0.90;;;18.70;99.90;;;;;;5010280;28;20191;-68
2023/06/18 11:04:39;;;;;;;0.80;0.80;;;18.80;99.90;;;;;;5015834;28;20257;-68
2023/06/18 11:07:19;;;;;;;1.17;1.08;;;18.80;99.90;;;;;;5031885;28;20202;-67
2023/06/18 11:09:47;;;;;;;1.48;1.20;;;18.90;99.90;;;;;;5034207;28;20186;-67
2023/06/18 11:12:21;;;;;;;1.95;1.33;;;19.10;99.90;;;;;;5014585;28;20737;-69
2023/06/18 11:15:11;;;;;;;0.65;0.65;;;19.20;99.90;;;;;;5032470;28;20201;-68
2023/06/18 11:17:38;;;;;;;1.42;1.17;;;19.10;99.90;;;;;;5033412;28;20202;-68
2023/06/18 11:20:05;;;;;;;3.42;1.85;;;19.00;99.90;;;;;;5033790;28;20194;-68
2023/06/18 11:22:33;;;;;;;1.00;0.90;;;19.00;99.90;;;;;;5033443;28;20194;-68
2023/06/18 11:24:59;;;;;;;1.00;0.63;;;18.70;99.90;;;;;;5033715;28;20236;-69
2023/06/18 11:27:26;;;;;;;1.27;0.98;;;18.60;99.90;;;;;;5033370;28;20211;-69
2023/06/18 11:29:58;;;;;;;1.02;0.93;;;18.50;99.90;;;;;;5033533;28;20216;-67
2023/06/18 11:32:27;;;;;;;0.40;0.40;;;18.60;99.90;;;;;;5033151;28;20194;-67
2023/06/18 11:34:56;;;;;;;0.68;0.50;;;18.50;99.90;;;;;;5046512;28;20201;-70
2023/06/18 11:37:28;;;;;;;1.42;1.33;;;18.60;99.90;;;;;;5052837;28;20248;-69
2023/06/18 11:39:55;;;;;;;0.90;0.88;;;18.50;99.90;;;;;;5035015;28;20208;-67
2023/06/18 11:42:25;;;;;;;0.90;0.90;;;18.40;99.90;;;;;;5052803;28;20208;-69
2023/06/18 11:44:58;;;;;;;0.50;0.50;;;18.30;99.90;;;;;;5053520;28;20208;-67
2023/06/18 11:47:24;;;;;;;1.13;1.02;;;18.10;99.90;;;;;;5052568;28;20212;-70
2023/06/18 11:49:51;;;;;;;0.73;0.73;;;18.20;99.90;;;;;;5053191;28;20185;-69
2023/06/18 11:52:20;;;;;;;1.65;1.00;;;18.00;99.90;;;;;;5052637;28;20193;-69
2023/06/18 11:54:46;;;;;;;0.50;0.50;;;17.90;99.90;;;;;;5052797;28;20192;-69
2023/06/18 11:57:13;;;;;;;2.35;1.27;;;17.90;99.90;;;;;;5064763;28;20582;-69
2023/06/18 11:59:40;;;;;;;0.57;0.57;;;17.80;99.90;;;;;;5072731;28;20647;-69
2023/06/18 12:02:17;;;;;;;1.30;0.95;;;17.80;99.90;;;;;;5072726;28;20189;-69
2023/06/18 12:04:44;;;;;;;1.90;1.02;;;17.80;99.90;;;;;;5072315;28;20225;-69
2023/06/18 12:07:20;;;;;;;0.82;0.82;;;17.70;99.90;;;;;;5072363;28;20292;-70
2023/06/18 12:09:47;;;;;;;1.70;1.25;;;17.90;99.90;;;;;;5072793;28;20578;-69
2023/06/18 12:12:31;;;;;;;1.00;0.80;;;17.80;99.90;;;;;;5072522;28;20629;-69
2023/06/18 12:15:00;;;;;;;2.67;0.57;;;17.80;99.90;;;;;;5072522;28;20575;-69
2023/06/18 12:17:50;;;;;;;14.60;1.20;;;17.80;99.90;;;;;;5072003;28;20226;-69
2023/06/18 12:20:19;;;;;;;1.55;0.88;;;17.60;99.90;;;;;;5072458;28;20193;-69
2023/06/18 12:22:45;;;;;;;1.35;0.93;;;17.60;99.90;;;;;;5072310;28;20501;-68
2023/06/18 12:25:12;;;;;;;1.67;1.55;;;17.60;99.90;;;;;;5054021;28;20200;-68
2023/06/18 12:27:39;;;;;;;1.05;1.00;;;17.60;99.90;;;;;;5072211;28;20844;-68
2023/06/18 12:30:06;;;;;;;0.82;0.57;;;17.50;99.90;;;;;;5067432;28;20276;-68
2023/06/18 12:32:36;;;;;;;0.60;0.60;;;17.50;99.90;;;;;;5051458;28;20201;-68
2023/06/18 12:35:15;;;;;;;0.93;0.85;;;17.50;99.90;;;;;;5052161;28;20403;-68
2023/06/18 12:37:48;;;;;;;0.93;0.77;;;17.50;99.90;;;;;;5051804;28;20200;-68
2023/06/18 12:40:24;;;;;;;2.58;0.85;;;17.40;99.90;;;;;;5052035;28;20268;-68
2023/06/18 12:42:51;;;;;;;0.80;0.80;;;17.40;99.90;;;;;;5051998;28;20694;-67
2023/06/18 12:45:23;;;;;;;0.47;0.47;;;17.50;99.90;;;;;;5051739;28;20620;-67
2023/06/18 12:47:49;;;;;;;0.30;0.30;;;17.70;99.90;;;;;;5051689;28;20573;-67
2023/06/18 12:50:24;;;;;;;1.88;1.05;;;17.70;99.90;;;;;;5051735;28;20186;-68
2023/06/18 12:52:51;;;;;;;2.38;0.82;;;17.70;99.90;;;;;;5058352;28;20274;-68